createdAt,value
2018-12-06T00:00:45.155Z,63.96
2018-12-06T00:03:08.313Z,64.72
2018-12-06T00:05:31.433Z,64.75
2018-12-06T00:08:06.411Z,64.44
2018-12-06T00:10:29.561Z,64.23
2018-12-06T00:12:52.654Z,64.09
2018-12-06T00:15:24.999Z,64.51
2018-12-06T00:17:48.093Z,64.56
2018-12-06T00:20:11.196Z,64.69
2018-12-06T00:22:34.306Z,64.55
2018-12-06T00:24:57.406Z,64.51
2018-12-06T00:27:20.514Z,65.29
2018-12-06T00:29:47.510Z,66.26
2018-12-06T00:32:10.631Z,65.06
2018-12-06T00:34:33.757Z,66.31
2018-12-06T00:36:56.880Z,66.57
2018-12-06T00:39:19.964Z,65.67
2018-12-06T00:41:43.157Z,66.88
2018-12-06T00:44:06.314Z,67.07
2018-12-06T00:46:29.421Z,66.75
2018-12-06T00:48:52.509Z,66.95
2018-12-06T00:51:15.661Z,67.65
2018-12-06T00:53:38.776Z,66.18
2018-12-06T00:56:01.915Z,66.62
2018-12-06T00:58:25.018Z,66.86
2018-12-06T01:00:48.156Z,66.29
2018-12-06T01:03:11.264Z,66.54
2018-12-06T01:05:34.694Z,66.51
2018-12-06T01:07:57.802Z,67.61
2018-12-06T01:10:20.903Z,68.58
2018-12-06T01:12:44.040Z,67.12
2018-12-06T01:15:07.201Z,67.19
2018-12-06T01:17:30.310Z,67.73
2018-12-06T01:19:53.408Z,66.92
2018-12-06T01:22:16.556Z,67.98
2018-12-06T01:24:39.649Z,67.10
2018-12-06T01:27:02.737Z,67.07
2018-12-06T01:29:25.880Z,67.36
2018-12-06T01:31:49.094Z,67.54
2018-12-06T01:34:12.231Z,67.98
2018-12-06T01:36:35.327Z,67.08
2018-12-06T01:38:58.453Z,67.44
2018-12-06T01:41:21.560Z,69.36
2018-12-06T01:43:44.670Z,68.90
2018-12-06T01:46:07.816Z,68.27
2018-12-06T01:48:31.051Z,67.73
2018-12-06T01:50:54.238Z,69.01
2018-12-06T01:53:17.349Z,68.20
2018-12-06T01:55:40.463Z,67.44
2018-12-06T01:58:03.655Z,67.61
2018-12-06T02:00:26.777Z,68.01
2018-12-06T02:02:49.926Z,67.93
2018-12-06T02:05:13.062Z,70.63
2018-12-06T02:07:36.185Z,69.40
2018-12-06T02:09:59.340Z,69.41
2018-12-06T02:12:22.432Z,68.55
2018-12-06T02:14:45.583Z,68.92
2018-12-06T02:17:08.705Z,69.14
2018-12-06T02:19:31.806Z,70.61
2018-12-06T02:21:54.904Z,69.05
2018-12-06T02:24:18.086Z,68.62
2018-12-06T02:26:41.194Z,69.93
2018-12-06T02:29:04.356Z,68.73
2018-12-06T02:31:27.470Z,68.83
2018-12-06T02:33:50.599Z,70.31
2018-12-06T02:36:13.744Z,70.03
2018-12-06T02:38:36.853Z,69.66
2018-12-06T02:41:00.013Z,69.12
2018-12-06T02:43:23.113Z,69.59
2018-12-06T02:45:46.238Z,69.40
2018-12-06T02:48:09.402Z,70.07
2018-12-06T02:50:32.558Z,69.46
2018-12-06T02:52:55.692Z,69.14
2018-12-06T02:55:18.811Z,70.96
2018-12-06T02:57:41.917Z,71.00
2018-12-06T03:00:05.185Z,70.37
2018-12-06T03:02:28.301Z,69.99
2018-12-06T03:04:51.417Z,69.38
2018-12-06T03:07:14.499Z,69.92
2018-12-06T03:09:37.653Z,70.23
2018-12-06T03:12:00.798Z,68.96
2018-12-06T03:14:23.959Z,70.08
2018-12-06T03:16:47.074Z,69.34
2018-12-06T03:19:10.191Z,69.99
2018-12-06T03:21:33.307Z,68.97
2018-12-06T03:23:56.441Z,69.49
2018-12-06T03:26:19.603Z,70.25
2018-12-06T03:28:42.697Z,69.55
2018-12-06T03:31:05.828Z,69.39
2018-12-06T03:33:28.936Z,68.87
2018-12-06T03:35:52.060Z,70.30
2018-12-06T03:38:15.165Z,69.78
2018-12-06T03:40:38.260Z,70.01
2018-12-06T03:43:01.388Z,70.23
2018-12-06T03:45:24.486Z,69.61
2018-12-06T03:47:47.612Z,69.61
2018-12-06T03:50:10.720Z,69.00
2018-12-06T03:52:33.829Z,69.92
2018-12-06T03:54:56.920Z,70.10
2018-12-06T03:57:20.012Z,69.85
2018-12-06T04:02:12.609Z,69.46
2018-12-06T04:04:35.924Z,70.44
2018-12-06T04:06:59.042Z,71.00
2018-12-06T04:09:22.181Z,70.30
2018-12-06T04:11:45.343Z,70.22
2018-12-06T04:14:08.496Z,70.40
2018-12-06T04:16:31.592Z,70.17
2018-12-06T04:18:54.843Z,69.45
2018-12-06T04:21:17.964Z,69.77
2018-12-06T04:23:41.088Z,68.95
2018-12-06T04:26:04.209Z,70.40
2018-12-06T04:28:27.328Z,69.69
2018-12-06T04:30:50.430Z,69.77
2018-12-06T04:33:13.556Z,69.67
2018-12-06T04:35:36.664Z,69.64
2018-12-06T04:37:59.767Z,69.61
2018-12-06T04:40:22.876Z,69.19
2018-12-06T04:42:45.982Z,69.33
2018-12-06T04:45:10.675Z,69.90
2018-12-06T04:47:33.965Z,69.71
2018-12-06T04:49:57.113Z,70.46
2018-12-06T04:52:20.195Z,69.46
2018-12-06T04:54:43.343Z,69.84
2018-12-06T04:57:06.488Z,69.69
2018-12-06T04:59:29.576Z,70.30
2018-12-06T05:01:52.730Z,71.30
2018-12-06T05:04:15.906Z,70.02
2018-12-06T05:06:39.021Z,70.97
2018-12-06T05:09:02.164Z,70.04
2018-12-06T05:11:25.299Z,71.64
2018-12-06T05:13:48.431Z,71.15
2018-12-06T05:16:11.548Z,71.02
2018-12-06T05:18:34.643Z,72.11
2018-12-06T05:20:57.763Z,69.98
2018-12-06T05:23:20.859Z,70.50
2018-12-06T05:25:44.016Z,70.77
2018-12-06T05:28:07.113Z,70.26
2018-12-06T05:30:30.223Z,69.35
2018-12-06T05:32:53.348Z,70.17
2018-12-06T05:35:16.445Z,71.43
2018-12-06T05:37:39.564Z,69.82
2018-12-06T05:40:02.733Z,70.42
2018-12-06T05:42:25.871Z,70.84
2018-12-06T05:44:48.952Z,69.18
2018-12-06T05:47:12.082Z,69.51
2018-12-06T05:49:35.183Z,68.88
2018-12-06T05:51:58.331Z,68.67
2018-12-06T05:54:21.435Z,69.32
2018-12-06T05:56:44.526Z,69.76
2018-12-06T05:59:07.636Z,69.50
2018-12-06T06:01:30.741Z,69.52
2018-12-06T06:03:54.018Z,69.03
2018-12-06T06:06:17.115Z,68.57
2018-12-06T06:08:40.270Z,68.72
2018-12-06T06:11:03.382Z,69.37
2018-12-06T06:13:26.528Z,69.61
2018-12-06T06:15:49.651Z,70.14
2018-12-06T06:18:12.759Z,69.84
2018-12-06T06:20:35.882Z,68.76
2018-12-06T06:22:58.994Z,68.42
2018-12-06T06:25:22.080Z,69.22
2018-12-06T06:27:45.209Z,69.91
2018-12-06T06:30:08.466Z,69.54
2018-12-06T06:32:31.639Z,68.59
2018-12-06T06:34:54.755Z,70.27
2018-12-06T06:37:17.879Z,71.29
2018-12-06T06:39:40.990Z,71.15
2018-12-06T06:42:04.145Z,70.47
2018-12-06T06:44:27.306Z,70.36
2018-12-06T06:46:50.402Z,69.31
2018-12-06T06:49:14.111Z,72.22
2018-12-06T06:51:37.543Z,70.66
2018-12-06T06:54:00.663Z,71.15
2018-12-06T06:56:23.846Z,72.21
2018-12-06T06:58:46.951Z,72.10
2018-12-06T07:01:10.086Z,71.46
2018-12-06T07:03:33.227Z,72.41
2018-12-06T07:05:56.454Z,73.12
2018-12-06T07:08:19.562Z,72.26
2018-12-06T07:10:42.702Z,72.13
2018-12-06T07:13:05.828Z,72.51
2018-12-06T07:15:28.934Z,72.12
2018-12-06T07:17:52.016Z,72.48
2018-12-06T07:20:15.217Z,72.13
2018-12-06T07:22:38.344Z,73.43
2018-12-06T07:25:01.453Z,72.57
2018-12-06T07:27:24.758Z,72.87
2018-12-06T07:29:48.641Z,74.03
2018-12-06T07:32:11.860Z,73.92
2018-12-06T07:34:34.977Z,73.76
2018-12-06T07:36:58.137Z,72.72
2018-12-06T07:39:21.282Z,73.18
2018-12-06T07:41:44.390Z,72.47
2018-12-06T07:44:07.486Z,72.86
2018-12-06T07:46:30.663Z,72.45
2018-12-06T07:48:53.934Z,72.64
2018-12-06T07:51:17.032Z,72.86
2018-12-06T07:53:40.162Z,73.16
2018-12-06T07:56:03.299Z,73.77
2018-12-06T07:58:26.444Z,74.54
2018-12-06T08:00:49.528Z,74.42
2018-12-06T08:03:12.690Z,74.23
2018-12-06T08:05:35.802Z,74.37
2018-12-06T08:07:58.908Z,74.88
2018-12-06T08:10:22.050Z,73.69
2018-12-06T08:12:45.227Z,73.81
2018-12-06T08:15:08.604Z,74.54
2018-12-06T08:17:31.754Z,75.28
2018-12-06T08:19:54.838Z,73.60
2018-12-06T08:22:17.991Z,74.85
2018-12-06T08:24:41.123Z,74.17
2018-12-06T08:27:04.286Z,74.05
2018-12-06T08:29:27.380Z,75.05
2018-12-06T08:31:50.507Z,74.97
2018-12-06T08:34:13.622Z,74.72
2018-12-06T08:36:36.729Z,75.50
2018-12-06T08:38:59.856Z,74.75
2018-12-06T08:41:22.952Z,74.06
2018-12-06T08:43:46.116Z,74.63
2018-12-06T08:46:09.251Z,74.49
2018-12-06T08:48:32.349Z,75.16
2018-12-06T08:50:55.477Z,74.72
2018-12-06T08:53:18.575Z,73.52
2018-12-06T08:55:41.766Z,74.89
2018-12-06T08:58:04.882Z,75.48
2018-12-06T09:00:28.048Z,74.94
2018-12-06T09:02:51.155Z,75.43
2018-12-06T09:05:14.299Z,73.76
2018-12-06T09:07:37.508Z,76.30
2018-12-06T09:10:00.615Z,75.78
2018-12-06T09:12:23.738Z,75.41
2018-12-06T09:14:46.893Z,75.61
2018-12-06T09:17:10.025Z,76.17
2018-12-06T09:19:33.148Z,75.26
2018-12-06T09:21:56.298Z,75.57
2018-12-06T09:24:19.445Z,75.02
2018-12-06T09:26:42.548Z,75.81
2018-12-06T09:29:05.659Z,77.21
2018-12-06T09:31:29.557Z,75.79
2018-12-06T09:34:01.160Z,76.71
2018-12-06T09:36:24.280Z,76.91
2018-12-06T09:38:47.394Z,77.13
2018-12-06T09:41:10.568Z,76.31
2018-12-06T09:43:33.678Z,75.84
2018-12-06T09:45:56.818Z,76.61
2018-12-06T09:48:19.942Z,76.09
2018-12-06T09:50:43.153Z,76.39
2018-12-06T09:53:06.342Z,76.30
2018-12-06T09:55:29.555Z,76.73
2018-12-06T09:57:52.699Z,77.19
2018-12-06T10:00:16.186Z,76.91
2018-12-06T10:02:39.327Z,76.64
2018-12-06T10:05:02.478Z,76.33
2018-12-06T10:07:27.313Z,77.46
2018-12-06T10:09:50.506Z,76.90
2018-12-06T10:12:13.619Z,76.28
2018-12-06T10:14:36.799Z,75.58
2018-12-06T10:16:59.907Z,76.74
2018-12-06T10:19:23.028Z,76.63
2018-12-06T10:21:46.177Z,76.48
2018-12-06T10:24:09.325Z,76.44
2018-12-06T10:26:32.508Z,76.41
2018-12-06T10:28:55.638Z,75.14
2018-12-06T10:31:18.803Z,76.18
2018-12-06T10:33:44.803Z,75.38
2018-12-06T10:36:07.988Z,75.93
2018-12-06T10:38:32.628Z,76.43
2018-12-06T10:40:55.750Z,76.14
2018-12-06T10:43:18.868Z,76.23
2018-12-06T10:45:42.021Z,76.33
2018-12-06T10:48:05.236Z,76.41
2018-12-06T10:50:28.338Z,78.36
2018-12-06T10:52:52.963Z,77.30
2018-12-06T10:55:16.093Z,77.62
2018-12-06T10:57:39.190Z,77.13
2018-12-06T11:00:02.368Z,77.67
2018-12-06T11:02:29.187Z,78.19
2018-12-06T11:04:52.344Z,77.66
2018-12-06T11:07:15.486Z,77.88
2018-12-06T11:09:38.594Z,77.58
2018-12-06T11:12:01.773Z,78.81
2018-12-06T11:14:25.678Z,77.95
2018-12-06T11:16:48.809Z,78.58
2018-12-06T11:19:12.784Z,77.91
2018-12-06T11:21:35.888Z,77.67
2018-12-06T11:23:59.050Z,77.39
2018-12-06T11:26:22.128Z,77.82
2018-12-06T11:28:45.220Z,78.26
2018-12-06T11:31:08.411Z,76.30
2018-12-06T11:33:31.544Z,76.77
2018-12-06T11:35:54.661Z,77.26
2018-12-06T11:38:17.832Z,78.41
2018-12-06T11:40:40.970Z,77.10
2018-12-06T11:43:05.718Z,77.39
2018-12-06T11:45:28.891Z,78.87
2018-12-06T11:47:52.010Z,78.41
2018-12-06T11:50:15.117Z,79.32
2018-12-06T11:52:38.275Z,78.79
2018-12-06T11:55:01.368Z,77.93
2018-12-06T11:57:24.483Z,78.07
2018-12-06T11:59:47.621Z,77.21
2018-12-06T12:02:10.800Z,78.26
2018-12-06T12:04:33.905Z,77.19
2018-12-06T12:06:57.042Z,78.15
2018-12-06T12:09:20.157Z,78.74
2018-12-06T12:11:43.260Z,78.38
2018-12-06T12:14:06.427Z,78.55
2018-12-06T12:16:29.572Z,79.43
2018-12-06T12:18:52.703Z,79.53
2018-12-06T12:21:15.855Z,79.36
2018-12-06T12:23:38.985Z,78.44
2018-12-06T12:26:02.107Z,78.71
2018-12-06T12:28:25.254Z,79.48
2018-12-06T12:30:48.414Z,79.64
2018-12-06T12:33:11.532Z,80.14
2018-12-06T12:35:34.666Z,80.72
2018-12-06T12:37:57.792Z,80.29
2018-12-06T12:40:20.916Z,80.33
2018-12-06T12:42:44.026Z,81.05
2018-12-06T12:45:07.556Z,79.66
2018-12-06T12:47:30.811Z,79.74
2018-12-06T12:49:53.900Z,80.51
2018-12-06T12:52:17.046Z,81.28
2018-12-06T12:54:40.148Z,81.18
2018-12-06T12:57:03.344Z,80.99
2018-12-06T12:59:26.455Z,81.64
2018-12-06T13:01:49.614Z,81.00
2018-12-06T13:04:13.213Z,81.97
2018-12-06T13:06:36.335Z,81.27
2018-12-06T13:08:59.473Z,81.44
2018-12-06T13:11:22.598Z,81.12
2018-12-06T13:13:45.693Z,81.61
2018-12-06T13:16:08.799Z,81.55
2018-12-06T13:18:31.924Z,81.80
2018-12-06T13:20:55.090Z,81.65
2018-12-06T13:23:18.195Z,82.16
2018-12-06T13:25:41.345Z,82.15
2018-12-06T13:28:04.562Z,82.11
2018-12-06T13:30:27.748Z,82.61
2018-12-06T13:32:51.065Z,82.25
2018-12-06T13:35:14.219Z,82.70
2018-12-06T13:37:37.465Z,81.70
2018-12-06T13:40:00.593Z,82.67
2018-12-06T13:42:24.609Z,82.40
2018-12-06T13:44:47.776Z,82.61
2018-12-06T13:47:10.954Z,82.50
2018-12-06T13:49:34.136Z,81.63
2018-12-06T13:51:57.300Z,82.43
2018-12-06T13:54:26.725Z,82.23
2018-12-06T13:56:45.517Z,83.16
2018-12-06T13:59:08.622Z,82.38
2018-12-06T14:01:31.778Z,81.96
2018-12-06T14:03:54.890Z,81.51
2018-12-06T14:06:18.010Z,82.80
2018-12-06T14:08:41.117Z,82.78
2018-12-06T14:11:04.280Z,83.25
2018-12-06T14:13:27.464Z,82.62
2018-12-06T14:15:50.554Z,81.97
2018-12-06T14:18:13.682Z,82.36
2018-12-06T14:20:36.821Z,81.83
2018-12-06T14:22:59.981Z,82.33
2018-12-06T14:25:23.162Z,81.74
2018-12-06T14:27:46.340Z,81.28
2018-12-06T14:30:09.599Z,82.75
2018-12-06T14:32:32.803Z,81.61
2018-12-06T14:34:55.930Z,82.05
2018-12-06T14:37:19.104Z,83.47
2018-12-06T14:39:42.235Z,81.98
2018-12-06T14:42:05.549Z,81.67
2018-12-06T14:44:28.706Z,81.85
2018-12-06T14:46:51.848Z,82.45
2018-12-06T14:49:14.974Z,81.59
2018-12-06T14:51:38.155Z,80.71
2018-12-06T14:54:01.356Z,81.71
2018-12-06T14:56:24.523Z,81.45
2018-12-06T14:58:47.683Z,81.68
2018-12-06T15:01:10.795Z,81.66
2018-12-06T15:03:33.912Z,81.32
2018-12-06T15:05:57.043Z,81.65
2018-12-06T15:08:20.167Z,81.38
2018-12-06T15:10:43.296Z,82.24
2018-12-06T15:13:06.420Z,82.23
2018-12-06T15:15:29.528Z,83.42
2018-12-06T15:17:53.538Z,82.92
2018-12-06T15:20:16.666Z,82.98
2018-12-06T15:22:39.866Z,82.54
2018-12-06T15:25:03.035Z,82.90
2018-12-06T15:27:26.596Z,82.87
2018-12-06T15:29:50.187Z,82.99
2018-12-06T15:32:13.816Z,83.38
2018-12-06T15:34:37.010Z,82.39
2018-12-06T15:37:00.141Z,83.01
2018-12-06T15:39:23.278Z,83.05
2018-12-06T15:41:46.434Z,83.26
2018-12-06T15:44:09.567Z,82.53
2018-12-06T15:46:32.743Z,82.59
2018-12-06T15:48:55.883Z,82.10
2018-12-06T15:51:19.066Z,81.89
2018-12-06T15:53:42.263Z,82.59
2018-12-06T15:56:05.697Z,82.00
2018-12-06T15:58:28.851Z,80.81
2018-12-06T16:00:52.006Z,81.93
2018-12-06T16:03:15.222Z,82.07
2018-12-06T16:05:38.336Z,83.39
2018-12-06T16:08:01.465Z,82.34
2018-12-06T16:10:24.605Z,82.45
2018-12-06T16:12:47.761Z,82.63
2018-12-06T16:15:11.016Z,82.37
2018-12-06T16:17:34.223Z,82.96
2018-12-06T16:19:57.327Z,82.84
2018-12-06T16:22:20.520Z,82.07
2018-12-06T16:24:43.645Z,82.45
2018-12-06T16:27:07.654Z,82.14
2018-12-06T16:29:30.797Z,82.07
2018-12-06T16:31:53.925Z,82.79
2018-12-06T16:34:17.076Z,82.97
2018-12-06T16:36:40.293Z,82.37
2018-12-06T16:39:05.375Z,82.54
2018-12-06T16:41:28.521Z,82.33
2018-12-06T16:43:51.652Z,82.46
2018-12-06T16:46:14.811Z,82.04
2018-12-06T16:48:38.391Z,82.53
2018-12-06T16:51:01.524Z,82.97
2018-12-06T16:53:24.659Z,83.04
2018-12-06T16:55:47.831Z,82.31
2018-12-06T16:58:10.977Z,82.33
2018-12-06T17:00:34.113Z,82.31
2018-12-06T17:02:57.252Z,82.74
2018-12-06T17:06:10.341Z,82.79
2018-12-06T17:08:33.481Z,82.12
2018-12-06T17:10:56.625Z,82.29
2018-12-06T17:13:19.728Z,82.81
2018-12-06T17:15:42.874Z,82.49
2018-12-06T17:18:06.051Z,83.36
2018-12-06T17:20:29.775Z,82.81
2018-12-06T17:22:52.957Z,82.81
2018-12-06T17:25:16.102Z,83.26
2018-12-06T17:27:39.248Z,83.26
2018-12-06T17:30:02.507Z,83.48
2018-12-06T17:32:25.776Z,83.36
2018-12-06T17:34:48.956Z,82.84
2018-12-06T17:37:12.082Z,83.02
2018-12-06T17:39:36.701Z,83.40
2018-12-06T17:42:00.137Z,82.77
2018-12-06T17:44:23.255Z,83.12
2018-12-06T17:46:46.392Z,82.54
2018-12-06T17:49:09.520Z,82.43
2018-12-06T17:51:32.671Z,82.73
2018-12-06T17:53:55.793Z,82.91
2018-12-06T17:56:18.997Z,82.75
2018-12-06T17:58:42.117Z,82.43
2018-12-06T18:01:05.374Z,82.34
2018-12-06T18:03:28.557Z,83.52
2018-12-06T18:05:51.673Z,82.31
2018-12-06T18:08:14.849Z,83.29
2018-12-06T18:10:38.613Z,83.59
2018-12-06T18:13:01.738Z,83.23
2018-12-06T18:15:25.378Z,83.32
2018-12-06T18:17:48.514Z,83.56
2018-12-06T18:20:11.735Z,83.08
2018-12-06T18:22:34.860Z,83.32
2018-12-06T18:24:57.986Z,83.61
2018-12-06T18:27:21.152Z,83.45
2018-12-06T18:29:44.275Z,83.15
2018-12-06T18:32:07.412Z,82.78
2018-12-06T18:34:30.676Z,83.68
2018-12-06T18:36:53.797Z,82.93
2018-12-06T18:39:16.917Z,83.50
2018-12-06T18:41:40.090Z,83.47
2018-12-06T18:44:03.254Z,82.96
2018-12-06T18:46:26.502Z,83.77
2018-12-06T18:48:49.623Z,83.10
2018-12-06T18:51:12.737Z,82.83
2018-12-06T18:53:36.037Z,83.02
2018-12-06T18:55:59.232Z,83.45
2018-12-06T18:58:22.383Z,82.46
2018-12-06T19:00:45.512Z,82.78
2018-12-06T19:03:08.633Z,82.40
2018-12-06T19:05:31.796Z,82.02
2018-12-06T19:07:55.201Z,82.23
2018-12-06T19:10:18.325Z,82.99
2018-12-06T19:12:41.446Z,82.67
2018-12-06T19:15:04.780Z,82.58
2018-12-06T19:17:27.955Z,81.98
2018-12-06T19:19:51.721Z,82.06
2018-12-06T19:22:14.875Z,82.59
2018-12-06T19:24:38.068Z,82.19
2018-12-06T19:27:01.261Z,81.99
2018-12-06T19:29:25.329Z,82.32
2018-12-06T19:31:48.463Z,81.26
2018-12-06T19:34:11.603Z,81.07
2018-12-06T19:36:34.764Z,81.04
2018-12-06T19:38:58.804Z,81.72
2018-12-06T19:41:21.936Z,81.79
2018-12-06T19:43:45.126Z,81.63
2018-12-06T19:46:08.230Z,82.18
2018-12-06T19:48:31.387Z,82.21
2018-12-06T19:50:54.519Z,82.45
2018-12-06T19:53:17.637Z,82.65
2018-12-06T19:55:42.864Z,82.04
2018-12-06T19:58:06.008Z,81.87
2018-12-06T20:00:29.208Z,81.88
2018-12-06T20:02:52.335Z,81.09
2018-12-06T20:05:15.581Z,81.60
2018-12-06T20:07:38.764Z,81.40
2018-12-06T20:10:01.932Z,81.62
2018-12-06T20:12:25.067Z,81.31
2018-12-06T20:14:48.223Z,81.29
2018-12-06T20:17:11.390Z,81.16
2018-12-06T20:19:35.278Z,82.23
2018-12-06T20:21:58.415Z,81.32
2018-12-06T20:24:21.569Z,80.95
2018-12-06T20:26:44.725Z,81.75
2018-12-06T20:29:07.920Z,81.17
2018-12-06T20:31:31.116Z,80.65
2018-12-06T20:33:54.293Z,81.11
2018-12-06T20:36:17.420Z,81.51
2018-12-06T20:38:40.537Z,81.79
2018-12-06T20:41:03.739Z,81.12
2018-12-06T20:43:26.841Z,81.08
2018-12-06T20:45:50.007Z,80.51
2018-12-06T20:48:13.135Z,80.37
2018-12-06T20:50:36.266Z,80.98
2018-12-06T20:52:59.408Z,81.33
2018-12-06T20:55:22.530Z,80.75
2018-12-06T20:57:45.676Z,81.19
2018-12-06T21:00:08.938Z,81.23
2018-12-06T21:02:32.093Z,81.95
2018-12-06T21:04:55.224Z,81.95
2018-12-06T21:07:18.438Z,81.54
2018-12-06T21:09:41.699Z,81.63
2018-12-06T21:12:04.878Z,81.92
2018-12-06T21:14:27.999Z,81.41
2018-12-06T21:16:51.171Z,81.55
2018-12-06T21:19:14.389Z,81.13
2018-12-06T21:21:37.620Z,81.59
2018-12-06T21:24:00.762Z,82.75
2018-12-06T21:26:23.944Z,82.07
2018-12-06T21:28:47.133Z,82.26
2018-12-06T21:31:10.277Z,82.67
2018-12-06T21:33:33.522Z,82.58
2018-12-06T21:35:56.629Z,83.17
2018-12-06T21:38:19.764Z,82.38
2018-12-06T21:40:42.946Z,82.13
2018-12-06T21:43:06.057Z,82.92
2018-12-06T21:45:29.291Z,83.11
2018-12-06T21:47:52.388Z,82.76
2018-12-06T21:50:15.509Z,83.50
2018-12-06T21:52:38.642Z,83.56
2018-12-06T21:55:01.811Z,82.34
2018-12-06T21:57:24.948Z,82.88
2018-12-06T21:59:48.101Z,83.07
2018-12-06T22:02:23.294Z,82.52
2018-12-06T22:04:46.493Z,83.03
2018-12-06T22:07:09.599Z,81.87
2018-12-06T22:09:32.769Z,81.65
2018-12-06T22:11:55.898Z,82.46
2018-12-06T22:14:18.999Z,82.22
2018-12-06T22:16:42.376Z,82.46
2018-12-06T22:19:05.457Z,82.89
2018-12-06T22:21:28.580Z,83.20
2018-12-06T22:23:51.757Z,81.83
2018-12-06T22:26:14.946Z,82.96
2018-12-06T22:28:38.203Z,82.98
2018-12-06T22:31:01.360Z,83.02
2018-12-06T22:33:24.513Z,82.49
2018-12-06T22:35:47.654Z,82.75
2018-12-06T22:38:10.764Z,82.57
2018-12-06T22:40:34.011Z,82.86
2018-12-06T22:42:57.123Z,83.34
2018-12-06T22:48:15.771Z,83.12
2018-12-06T22:50:39.096Z,83.50
2018-12-06T22:53:02.207Z,83.10
2018-12-06T22:55:25.328Z,82.84
2018-12-06T22:57:48.440Z,82.88
2018-12-06T23:00:14.220Z,83.02
2018-12-06T23:02:37.486Z,82.78
2018-12-06T23:05:00.591Z,82.15
2018-12-06T23:07:23.702Z,82.68
2018-12-06T23:09:46.861Z,83.18
2018-12-06T23:12:10.027Z,82.09
2018-12-06T23:14:33.160Z,82.85
2018-12-06T23:16:56.272Z,82.51
2018-12-06T23:19:19.739Z,82.69
2018-12-06T23:21:42.911Z,83.21
2018-12-06T23:24:06.009Z,82.92
2018-12-06T23:26:29.448Z,83.40
2018-12-06T23:28:52.576Z,82.71
2018-12-06T23:31:15.711Z,82.35
2018-12-06T23:33:38.850Z,83.35
2018-12-06T23:36:02.005Z,83.01
2018-12-06T23:38:25.463Z,83.15
2018-12-06T23:40:48.568Z,82.89
2018-12-06T23:43:11.696Z,82.36
2018-12-06T23:45:34.870Z,83.59
2018-12-06T23:47:58.001Z,83.20
2018-12-06T23:50:21.641Z,83.31
2018-12-06T23:52:44.828Z,82.35
2018-12-06T23:55:08.006Z,82.65
2018-12-06T23:57:31.180Z,82.88
2018-12-06T23:59:54.339Z,83.31
